sensor_id;sensor_type;location;lat;lon;timestamp;temperature;humidity
2042;DHT22;1026;51.460;7.252;2022-11-18T00:01:19;10.10;94.60
2042;DHT22;1026;51.460;7.252;2022-11-18T00:03:45;10.10;94.60
2042;DHT22;1026;51.460;7.252;2022-11-18T00:06:13;10.10;94.60
2042;DHT22;1026;51.460;7.252;2022-11-18T00:08:39;10.00;94.60
2042;DHT22;1026;51.460;7.252;2022-11-18T00:11:08;10.10;94.60
2042;DHT22;1026;51.460;7.252;2022-11-18T00:13:33;10.10;94.60
2042;DHT22;1026;51.460;7.252;2022-11-18T00:16:14;10.10;94.60
2042;DHT22;1026;51.460;7.252;2022-11-18T00:18:40;10.00;94.60
2042;DHT22;1026;51.460;7.252;2022-11-18T00:21:09;10.00;94.60
2042;DHT22;1026;51.460;7.252;2022-11-18T00:23:35;10.00;94.60
2042;DHT22;1026;51.460;7.252;2022-11-18T00:26:06;10.10;94.60
2042;DHT22;1026;51.460;7.252;2022-11-18T00:28:33;10.00;94.60
2042;DHT22;1026;51.460;7.252;2022-11-18T00:31:01;10.00;94.60
2042;DHT22;1026;51.460;7.252;2022-11-18T00:33:27;10.00;94.60
2042;DHT22;1026;51.460;7.252;2022-11-18T00:35:53;10.00;94.60
2042;DHT22;1026;51.460;7.252;2022-11-18T00:38:19;10.00;94.60
2042;DHT22;1026;51.460;7.252;2022-11-18T00:40:45;10.00;94.60
2042;DHT22;1026;51.460;7.252;2022-11-18T00:43:10;10.00;94.60
2042;DHT22;1026;51.460;7.252;2022-11-18T00:45:36;10.00;94.60
2042;DHT22;1026;51.460;7.252;2022-11-18T00:48:02;10.00;94.60
2042;DHT22;1026;51.460;7.252;2022-11-18T00:50:28;9.90;95.10
2042;DHT22;1026;51.460;7.252;2022-11-18T00:52:53;10.00;94.60
2042;DHT22;1026;51.460;7.252;2022-11-18T00:55:19;10.00;94.60
2042;DHT22;1026;51.460;7.252;2022-11-18T00:57:45;9.90;95.10
2042;DHT22;1026;51.460;7.252;2022-11-18T01:00:10;10.00;94.60
2042;DHT22;1026;51.460;7.252;2022-11-18T01:02:36;10.00;94.60
2042;DHT22;1026;51.460;7.252;2022-11-18T01:05:03;9.90;95.10
2042;DHT22;1026;51.460;7.252;2022-11-18T01:07:29;10.00;94.60
2042;DHT22;1026;51.460;7.252;2022-11-18T01:09:54;9.90;95.10
2042;DHT22;1026;51.460;7.252;2022-11-18T01:12:22;10.00;94.60
2042;DHT22;1026;51.460;7.252;2022-11-18T01:15:03;9.90;95.10
2042;DHT22;1026;51.460;7.252;2022-11-18T01:17:29;10.00;94.60
2042;DHT22;1026;51.460;7.252;2022-11-18T01:19:55;10.00;94.60
2042;DHT22;1026;51.460;7.252;2022-11-18T01:22:21;10.00;94.60
2042;DHT22;1026;51.460;7.252;2022-11-18T01:24:46;10.00;94.60
2042;DHT22;1026;51.460;7.252;2022-11-18T01:27:12;10.00;94.60
2042;DHT22;1026;51.460;7.252;2022-11-18T01:29:37;10.00;94.60
2042;DHT22;1026;51.460;7.252;2022-11-18T01:32:03;10.00;94.60
2042;DHT22;1026;51.460;7.252;2022-11-18T01:34:29;10.00;94.60
2042;DHT22;1026;51.460;7.252;2022-11-18T01:36:55;9.90;95.10
2042;DHT22;1026;51.460;7.252;2022-11-18T01:39:22;10.00;94.60
2042;DHT22;1026;51.460;7.252;2022-11-18T01:41:47;10.00;94.60
2042;DHT22;1026;51.460;7.252;2022-11-18T01:47:09;10.00;94.60
2042;DHT22;1026;51.460;7.252;2022-11-18T01:49:35;10.00;94.60
2042;DHT22;1026;51.460;7.252;2022-11-18T01:52:01;10.00;94.60
2042;DHT22;1026;51.460;7.252;2022-11-18T01:54:31;10.00;94.70
2042;DHT22;1026;51.460;7.252;2022-11-18T01:57:00;10.00;94.70
2042;DHT22;1026;51.460;7.252;2022-11-18T01:59:31;9.90;95.10
2042;DHT22;1026;51.460;7.252;2022-11-18T02:02:02;9.90;95.10
2042;DHT22;1026;51.460;7.252;2022-11-18T02:04:30;10.00;94.70
2042;DHT22;1026;51.460;7.252;2022-11-18T02:06:56;9.90;95.10
2042;DHT22;1026;51.460;7.252;2022-11-18T02:09:22;9.90;95.10
2042;DHT22;1026;51.460;7.252;2022-11-18T02:11:48;9.90;95.10
2042;DHT22;1026;51.460;7.252;2022-11-18T02:14:25;9.90;95.10
2042;DHT22;1026;51.460;7.252;2022-11-18T02:16:57;9.90;95.10
2042;DHT22;1026;51.460;7.252;2022-11-18T02:19:56;10.00;94.60
2042;DHT22;1026;51.460;7.252;2022-11-18T02:30:59;9.90;95.10
2042;DHT22;1026;51.460;7.252;2022-11-18T02:33:48;9.80;95.10
2042;DHT22;1026;51.460;7.252;2022-11-18T02:39:08;10.00;94.70
2042;DHT22;1026;51.460;7.252;2022-11-18T02:41:35;9.90;95.20
2042;DHT22;1026;51.460;7.252;2022-11-18T02:44:08;9.90;95.10
2042;DHT22;1026;51.460;7.252;2022-11-18T02:46:37;9.90;95.10
2042;DHT22;1026;51.460;7.252;2022-11-18T02:49:11;9.90;95.10
2042;DHT22;1026;51.460;7.252;2022-11-18T02:51:38;9.90;95.10
2042;DHT22;1026;51.460;7.252;2022-11-18T02:54:06;9.90;95.10
2042;DHT22;1026;51.460;7.252;2022-11-18T02:56:34;9.90;95.10
2042;DHT22;1026;51.460;7.252;2022-11-18T02:59:00;9.80;95.10
2042;DHT22;1026;51.460;7.252;2022-11-18T03:01:29;9.90;95.10
2042;DHT22;1026;51.460;7.252;2022-11-18T03:03:55;9.90;95.10
2042;DHT22;1026;51.460;7.252;2022-11-18T03:06:31;9.80;95.10
2042;DHT22;1026;51.460;7.252;2022-11-18T03:09:15;9.90;95.10
2042;DHT22;1026;51.460;7.252;2022-11-18T03:11:45;9.90;95.10
2042;DHT22;1026;51.460;7.252;2022-11-18T03:14:20;9.90;95.10
2042;DHT22;1026;51.460;7.252;2022-11-18T03:17:08;9.90;95.10
2042;DHT22;1026;51.460;7.252;2022-11-18T03:22:36;9.90;95.10
2042;DHT22;1026;51.460;7.252;2022-11-18T03:25:08;9.80;95.10
2042;DHT22;1026;51.460;7.252;2022-11-18T03:27:41;9.90;95.10
2042;DHT22;1026;51.460;7.252;2022-11-18T03:30:13;9.90;95.20
2042;DHT22;1026;51.460;7.252;2022-11-18T03:32:43;9.80;95.10
2042;DHT22;1026;51.460;7.252;2022-11-18T03:35:15;9.90;95.10
2042;DHT22;1026;51.460;7.252;2022-11-18T03:37:43;9.90;95.10
2042;DHT22;1026;51.460;7.252;2022-11-18T03:40:16;9.80;95.10
2042;DHT22;1026;51.460;7.252;2022-11-18T03:42:46;9.80;95.10
2042;DHT22;1026;51.460;7.252;2022-11-18T03:45:22;9.70;95.00
2042;DHT22;1026;51.460;7.252;2022-11-18T03:47:54;9.80;95.40
2042;DHT22;1026;51.460;7.252;2022-11-18T03:50:26;9.80;95.10
2042;DHT22;1026;51.460;7.252;2022-11-18T03:52:54;9.80;95.10
2042;DHT22;1026;51.460;7.252;2022-11-18T03:55:24;9.80;95.10
2042;DHT22;1026;51.460;7.252;2022-11-18T03:58:02;9.80;95.10
2042;DHT22;1026;51.460;7.252;2022-11-18T04:00:34;9.80;95.20
2042;DHT22;1026;51.460;7.252;2022-11-18T04:03:02;9.80;95.10
2042;DHT22;1026;51.460;7.252;2022-11-18T04:05:32;9.80;95.20
2042;DHT22;1026;51.460;7.252;2022-11-18T04:08:00;9.80;95.10
2042;DHT22;1026;51.460;7.252;2022-11-18T04:10:38;9.80;95.10
2042;DHT22;1026;51.460;7.252;2022-11-18T04:15:49;9.80;95.10
2042;DHT22;1026;51.460;7.252;2022-11-18T04:18:15;9.90;95.20
2042;DHT22;1026;51.460;7.252;2022-11-18T04:20:41;9.70;95.10
2042;DHT22;1026;51.460;7.252;2022-11-18T04:23:07;9.80;95.20
2042;DHT22;1026;51.460;7.252;2022-11-18T04:25:33;9.80;95.10
2042;DHT22;1026;51.460;7.252;2022-11-18T04:27:59;9.80;95.20
2042;DHT22;1026;51.460;7.252;2022-11-18T04:30:26;9.80;95.20
2042;DHT22;1026;51.460;7.252;2022-11-18T04:32:52;9.80;95.20
2042;DHT22;1026;51.460;7.252;2022-11-18T04:35:17;9.80;95.10
2042;DHT22;1026;51.460;7.252;2022-11-18T04:37:43;9.80;95.10
2042;DHT22;1026;51.460;7.252;2022-11-18T04:40:09;9.80;95.10
2042;DHT22;1026;51.460;7.252;2022-11-18T04:42:35;9.80;95.20
2042;DHT22;1026;51.460;7.252;2022-11-18T04:45:01;9.80;95.20
2042;DHT22;1026;51.460;7.252;2022-11-18T04:47:26;9.80;95.20
2042;DHT22;1026;51.460;7.252;2022-11-18T04:49:52;9.80;95.10
2042;DHT22;1026;51.460;7.252;2022-11-18T04:52:18;9.80;95.20
2042;DHT22;1026;51.460;7.252;2022-11-18T04:54:44;9.70;95.10
2042;DHT22;1026;51.460;7.252;2022-11-18T04:57:09;9.80;95.20
2042;DHT22;1026;51.460;7.252;2022-11-18T04:59:35;9.80;95.10
2042;DHT22;1026;51.460;7.252;2022-11-18T05:02:01;9.80;95.10
2042;DHT22;1026;51.460;7.252;2022-11-18T05:04:29;9.80;95.20
2042;DHT22;1026;51.460;7.252;2022-11-18T05:06:55;9.70;95.10
2042;DHT22;1026;51.460;7.252;2022-11-18T05:09:21;9.70;95.10
2042;DHT22;1026;51.460;7.252;2022-11-18T05:11:47;9.80;95.20
2042;DHT22;1026;51.460;7.252;2022-11-18T05:14:28;9.80;95.20
2042;DHT22;1026;51.460;7.252;2022-11-18T05:16:56;9.80;95.20
2042;DHT22;1026;51.460;7.252;2022-11-18T05:19:22;9.80;95.20
2042;DHT22;1026;51.460;7.252;2022-11-18T05:21:48;9.80;95.20
2042;DHT22;1026;51.460;7.252;2022-11-18T05:24:13;9.80;95.20
2042;DHT22;1026;51.460;7.252;2022-11-18T05:26:39;9.80;95.20
2042;DHT22;1026;51.460;7.252;2022-11-18T05:29:05;9.80;95.20
2042;DHT22;1026;51.460;7.252;2022-11-18T05:31:31;9.80;95.20
2042;DHT22;1026;51.460;7.252;2022-11-18T05:33:57;9.80;95.20
2042;DHT22;1026;51.460;7.252;2022-11-18T05:36:22;9.80;95.20
2042;DHT22;1026;51.460;7.252;2022-11-18T05:38:49;9.80;95.20
2042;DHT22;1026;51.460;7.252;2022-11-18T05:41:15;9.80;95.20
2042;DHT22;1026;51.460;7.252;2022-11-18T05:43:57;9.80;95.20
2042;DHT22;1026;51.460;7.252;2022-11-18T05:46:23;9.70;95.10
2042;DHT22;1026;51.460;7.252;2022-11-18T05:48:48;9.70;95.10
2042;DHT22;1026;51.460;7.252;2022-11-18T05:51:14;9.80;95.20
2042;DHT22;1026;51.460;7.252;2022-11-18T05:53:40;9.80;95.20
2042;DHT22;1026;51.460;7.252;2022-11-18T05:58:55;9.80;95.20
2042;DHT22;1026;51.460;7.252;2022-11-18T06:01:27;9.80;95.20
2042;DHT22;1026;51.460;7.252;2022-11-18T06:03:54;9.80;95.20
2042;DHT22;1026;51.460;7.252;2022-11-18T06:06:21;9.80;95.20
2042;DHT22;1026;51.460;7.252;2022-11-18T06:08:52;9.80;95.20
2042;DHT22;1026;51.460;7.252;2022-11-18T06:11:19;9.80;95.20
2042;DHT22;1026;51.460;7.252;2022-11-18T06:13:52;9.80;95.20
2042;DHT22;1026;51.460;7.252;2022-11-18T06:16:20;9.80;95.20
2042;DHT22;1026;51.460;7.252;2022-11-18T06:18:47;9.80;95.20
2042;DHT22;1026;51.460;7.252;2022-11-18T06:21:13;9.80;95.20
2042;DHT22;1026;51.460;7.252;2022-11-18T06:23:40;9.80;95.20
2042;DHT22;1026;51.460;7.252;2022-11-18T06:26:06;9.80;95.20
2042;DHT22;1026;51.460;7.252;2022-11-18T06:28:34;9.80;95.20
2042;DHT22;1026;51.460;7.252;2022-11-18T06:31:00;9.80;95.20
2042;DHT22;1026;51.460;7.252;2022-11-18T06:33:26;9.80;95.20
2042;DHT22;1026;51.460;7.252;2022-11-18T06:35:51;9.80;95.20
2042;DHT22;1026;51.460;7.252;2022-11-18T06:38:17;9.80;95.20
2042;DHT22;1026;51.460;7.252;2022-11-18T06:40:43;9.80;95.20
2042;DHT22;1026;51.460;7.252;2022-11-18T06:43:10;9.80;95.20
2042;DHT22;1026;51.460;7.252;2022-11-18T06:45:51;9.80;95.20
2042;DHT22;1026;51.460;7.252;2022-11-18T06:48:32;9.80;95.20
2042;DHT22;1026;51.460;7.252;2022-11-18T06:50:57;9.80;95.20
2042;DHT22;1026;51.460;7.252;2022-11-18T06:53:23;9.80;95.20
2042;DHT22;1026;51.460;7.252;2022-11-18T06:55:49;9.70;95.10
2042;DHT22;1026;51.460;7.252;2022-11-18T06:58:14;9.80;95.30
2042;DHT22;1026;51.460;7.252;2022-11-18T07:00:40;9.80;95.20
2042;DHT22;1026;51.460;7.252;2022-11-18T07:03:07;9.80;95.20
2042;DHT22;1026;51.460;7.252;2022-11-18T07:05:32;9.80;95.20
2042;DHT22;1026;51.460;7.252;2022-11-18T07:07:58;9.80;95.20
2042;DHT22;1026;51.460;7.252;2022-11-18T07:10:24;9.80;95.20
2042;DHT22;1026;51.460;7.252;2022-11-18T07:12:49;9.80;95.20
2042;DHT22;1026;51.460;7.252;2022-11-18T07:15:15;9.80;95.20
2042;DHT22;1026;51.460;7.252;2022-11-18T07:17:40;9.70;95.10
2042;DHT22;1026;51.460;7.252;2022-11-18T07:20:06;9.80;95.20
2042;DHT22;1026;51.460;7.252;2022-11-18T07:22:32;9.80;95.20
2042;DHT22;1026;51.460;7.252;2022-11-18T07:24:58;9.80;95.20
2042;DHT22;1026;51.460;7.252;2022-11-18T07:27:23;9.80;95.20
2042;DHT22;1026;51.460;7.252;2022-11-18T07:29:49;9.80;95.20
2042;DHT22;1026;51.460;7.252;2022-11-18T07:32:15;9.80;95.20
2042;DHT22;1026;51.460;7.252;2022-11-18T07:34:40;9.80;95.20
2042;DHT22;1026;51.460;7.252;2022-11-18T07:37:06;9.80;95.20
2042;DHT22;1026;51.460;7.252;2022-11-18T07:39:32;9.80;95.20
2042;DHT22;1026;51.460;7.252;2022-11-18T07:41:57;9.80;95.20
2042;DHT22;1026;51.460;7.252;2022-11-18T07:44:23;9.80;95.20
2042;DHT22;1026;51.460;7.252;2022-11-18T07:46:48;9.80;95.20
2042;DHT22;1026;51.460;7.252;2022-11-18T07:49:14;9.80;95.20
2042;DHT22;1026;51.460;7.252;2022-11-18T07:51:40;9.80;95.20
2042;DHT22;1026;51.460;7.252;2022-11-18T07:54:07;9.80;95.20
2042;DHT22;1026;51.460;7.252;2022-11-18T07:56:33;9.80;95.20
2042;DHT22;1026;51.460;7.252;2022-11-18T07:58:59;9.80;95.20
2042;DHT22;1026;51.460;7.252;2022-11-18T08:01:25;9.80;95.30
2042;DHT22;1026;51.460;7.252;2022-11-18T08:03:54;9.80;95.20
2042;DHT22;1026;51.460;7.252;2022-11-18T08:06:19;9.70;95.10
2042;DHT22;1026;51.460;7.252;2022-11-18T08:08:46;9.80;95.20
2042;DHT22;1026;51.460;7.252;2022-11-18T08:11:15;9.80;95.20
2042;DHT22;1026;51.460;7.252;2022-11-18T08:13:41;9.70;95.20
2042;DHT22;1026;51.460;7.252;2022-11-18T08:16:13;9.70;95.20
2042;DHT22;1026;51.460;7.252;2022-11-18T08:18:39;9.80;95.20
2042;DHT22;1026;51.460;7.252;2022-11-18T08:21:05;9.70;95.20
2042;DHT22;1026;51.460;7.252;2022-11-18T08:23:34;9.80;95.20
2042;DHT22;1026;51.460;7.252;2022-11-18T08:26:03;9.80;95.30
2042;DHT22;1026;51.460;7.252;2022-11-18T08:28:29;9.80;95.30
2042;DHT22;1026;51.460;7.252;2022-11-18T08:30:55;9.80;95.20
2042;DHT22;1026;51.460;7.252;2022-11-18T08:33:21;9.80;95.20
2042;DHT22;1026;51.460;7.252;2022-11-18T08:35:46;9.80;95.30
2042;DHT22;1026;51.460;7.252;2022-11-18T08:38:12;9.80;95.30
2042;DHT22;1026;51.460;7.252;2022-11-18T08:40:40;9.80;95.30
2042;DHT22;1026;51.460;7.252;2022-11-18T08:43:09;9.80;95.30
2042;DHT22;1026;51.460;7.252;2022-11-18T08:45:37;9.90;95.30
2042;DHT22;1026;51.460;7.252;2022-11-18T08:48:03;9.90;95.30
2042;DHT22;1026;51.460;7.252;2022-11-18T08:50:28;9.90;95.30
2042;DHT22;1026;51.460;7.252;2022-11-18T08:52:54;9.80;95.20
2042;DHT22;1026;51.460;7.252;2022-11-18T08:55:20;9.90;95.30
2042;DHT22;1026;51.460;7.252;2022-11-18T08:57:45;9.90;95.30
2042;DHT22;1026;51.460;7.252;2022-11-18T09:00:12;9.90;95.30
2042;DHT22;1026;51.460;7.252;2022-11-18T09:02:38;9.90;95.30
2042;DHT22;1026;51.460;7.252;2022-11-18T09:05:04;9.90;95.30
2042;DHT22;1026;51.460;7.252;2022-11-18T09:07:30;9.90;95.30
2042;DHT22;1026;51.460;7.252;2022-11-18T09:09:55;9.90;95.30
2042;DHT22;1026;51.460;7.252;2022-11-18T09:12:21;9.90;95.30
2042;DHT22;1026;51.460;7.252;2022-11-18T09:14:47;9.90;95.30
2042;DHT22;1026;51.460;7.252;2022-11-18T09:17:13;9.90;95.30
2042;DHT22;1026;51.460;7.252;2022-11-18T09:19:39;9.90;95.30
2042;DHT22;1026;51.460;7.252;2022-11-18T09:22:06;9.90;95.30
2042;DHT22;1026;51.460;7.252;2022-11-18T09:24:32;9.90;95.30
2042;DHT22;1026;51.460;7.252;2022-11-18T09:27:01;9.90;95.30
2042;DHT22;1026;51.460;7.252;2022-11-18T09:29:27;9.90;95.30
2042;DHT22;1026;51.460;7.252;2022-11-18T09:31:53;9.90;95.30
2042;DHT22;1026;51.460;7.252;2022-11-18T09:34:18;10.00;94.80
2042;DHT22;1026;51.460;7.252;2022-11-18T09:36:44;10.00;94.80
2042;DHT22;1026;51.460;7.252;2022-11-18T09:39:10;10.00;94.80
2042;DHT22;1026;51.460;7.252;2022-11-18T09:47:33;10.00;94.80
2042;DHT22;1026;51.460;7.252;2022-11-18T09:50:04;10.00;94.80
2042;DHT22;1026;51.460;7.252;2022-11-18T09:52:37;10.00;94.80
2042;DHT22;1026;51.460;7.252;2022-11-18T09:55:11;10.00;94.80
2042;DHT22;1026;51.460;7.252;2022-11-18T09:57:40;10.00;94.80
2042;DHT22;1026;51.460;7.252;2022-11-18T10:00:24;10.00;94.80
2042;DHT22;1026;51.460;7.252;2022-11-18T10:02:56;10.00;94.80
2042;DHT22;1026;51.460;7.252;2022-11-18T10:05:25;10.00;94.80
2042;DHT22;1026;51.460;7.252;2022-11-18T10:08:04;10.00;94.80
2042;DHT22;1026;51.460;7.252;2022-11-18T10:10:45;10.00;94.80
2042;DHT22;1026;51.460;7.252;2022-11-18T10:21:50;10.10;94.80
2042;DHT22;1026;51.460;7.252;2022-11-18T10:24:21;10.10;94.80
2042;DHT22;1026;51.460;7.252;2022-11-18T10:26:55;10.10;94.80
2042;DHT22;1026;51.460;7.252;2022-11-18T10:29:21;10.10;94.80
2042;DHT22;1026;51.460;7.252;2022-11-18T10:31:53;10.10;94.80
2042;DHT22;1026;51.460;7.252;2022-11-18T10:34:20;10.10;94.80
2042;DHT22;1026;51.460;7.252;2022-11-18T10:39:28;10.00;94.70
2042;DHT22;1026;51.460;7.252;2022-11-18T10:41:59;10.20;94.80
2042;DHT22;1026;51.460;7.252;2022-11-18T10:44:37;10.10;94.80
2042;DHT22;1026;51.460;7.252;2022-11-18T10:47:21;10.10;94.80
2042;DHT22;1026;51.460;7.252;2022-11-18T10:49:48;10.20;94.80
2042;DHT22;1026;51.460;7.252;2022-11-18T10:52:14;10.20;94.80
2042;DHT22;1026;51.460;7.252;2022-11-18T10:54:41;10.20;94.80
2042;DHT22;1026;51.460;7.252;2022-11-18T10:57:17;10.20;94.80
2042;DHT22;1026;51.460;7.252;2022-11-18T11:00:00;10.20;94.80
2042;DHT22;1026;51.460;7.252;2022-11-18T11:05:15;10.20;94.80
2042;DHT22;1026;51.460;7.252;2022-11-18T11:07:42;10.10;94.70
2042;DHT22;1026;51.460;7.252;2022-11-18T11:10:17;10.20;94.70
2042;DHT22;1026;51.460;7.252;2022-11-18T11:12:50;10.20;94.70
2042;DHT22;1026;51.460;7.252;2022-11-18T11:15:26;10.10;94.60
2042;DHT22;1026;51.460;7.252;2022-11-18T11:17:58;10.30;94.70
2042;DHT22;1026;51.460;7.252;2022-11-18T11:20:40;10.30;94.70
2042;DHT22;1026;51.460;7.252;2022-11-18T11:23:10;10.30;94.70
2042;DHT22;1026;51.460;7.252;2022-11-18T11:25:58;10.30;94.70
2042;DHT22;1026;51.460;7.252;2022-11-18T11:31:29;10.30;94.70
2042;DHT22;1026;51.460;7.252;2022-11-18T11:37:03;10.30;94.70
2042;DHT22;1026;51.460;7.252;2022-11-18T11:42:21;10.30;94.70
2042;DHT22;1026;51.460;7.252;2022-11-18T11:50:22;10.30;94.70
2042;DHT22;1026;51.460;7.252;2022-11-18T11:53:13;10.30;94.70
2042;DHT22;1026;51.460;7.252;2022-11-18T11:58:26;10.40;94.70
2042;DHT22;1026;51.460;7.252;2022-11-18T12:01:08;10.20;94.60
2042;DHT22;1026;51.460;7.252;2022-11-18T12:03:46;10.40;94.70
2042;DHT22;1026;51.460;7.252;2022-11-18T12:06:13;10.40;94.70
2042;DHT22;1026;51.460;7.252;2022-11-18T12:14:14;10.40;94.70
2042;DHT22;1026;51.460;7.252;2022-11-18T12:16:48;10.30;94.70
2042;DHT22;1026;51.460;7.252;2022-11-18T12:19:19;10.40;94.70
2042;DHT22;1026;51.460;7.252;2022-11-18T12:24:32;10.40;94.70
2042;DHT22;1026;51.460;7.252;2022-11-18T12:27:04;10.40;94.60
2042;DHT22;1026;51.460;7.252;2022-11-18T12:29:52;10.40;94.60
2042;DHT22;1026;51.460;7.252;2022-11-18T12:35:23;10.30;94.60
2042;DHT22;1026;51.460;7.252;2022-11-18T12:51:52;10.50;94.70
2042;DHT22;1026;51.460;7.252;2022-11-18T12:56:50;10.50;95.00
2042;DHT22;1026;51.460;7.252;2022-11-18T12:59:25;10.40;94.70
2042;DHT22;1026;51.460;7.252;2022-11-18T13:02:02;10.50;94.70
2042;DHT22;1026;51.460;7.252;2022-11-18T13:04:28;10.50;94.70
2042;DHT22;1026;51.460;7.252;2022-11-18T13:06:53;10.50;94.70
2042;DHT22;1026;51.460;7.252;2022-11-18T13:09:23;10.40;94.60
2042;DHT22;1026;51.460;7.252;2022-11-18T13:12:06;10.50;94.70
2042;DHT22;1026;51.460;7.252;2022-11-18T13:14:40;10.50;94.60
2042;DHT22;1026;51.460;7.252;2022-11-18T13:17:38;10.50;94.60
2042;DHT22;1026;51.460;7.252;2022-11-18T13:25:52;10.50;94.60
2042;DHT22;1026;51.460;7.252;2022-11-18T13:28:35;10.50;94.60
2042;DHT22;1026;51.460;7.252;2022-11-18T13:34:02;10.50;94.60
2042;DHT22;1026;51.460;7.252;2022-11-18T13:36:30;10.50;94.60
2042;DHT22;1026;51.460;7.252;2022-11-18T13:39:00;10.50;94.60
2042;DHT22;1026;51.460;7.252;2022-11-18T13:41:27;10.50;94.60
2042;DHT22;1026;51.460;7.252;2022-11-18T13:44:17;10.50;94.60
2042;DHT22;1026;51.460;7.252;2022-11-18T13:46:44;10.50;94.60
2042;DHT22;1026;51.460;7.252;2022-11-18T13:49:14;10.60;94.60
2042;DHT22;1026;51.460;7.252;2022-11-18T13:51:42;10.60;94.70
2042;DHT22;1026;51.460;7.252;2022-11-18T13:54:12;10.60;94.60
2042;DHT22;1026;51.460;7.252;2022-11-18T13:56:40;10.60;94.60
2042;DHT22;1026;51.460;7.252;2022-11-18T13:59:16;10.60;94.60
2042;DHT22;1026;51.460;7.252;2022-11-18T14:01:43;10.60;94.60
2042;DHT22;1026;51.460;7.252;2022-11-18T14:04:25;10.60;94.60
2042;DHT22;1026;51.460;7.252;2022-11-18T14:06:52;10.60;94.60
2042;DHT22;1026;51.460;7.252;2022-11-18T14:09:23;10.60;94.50
2042;DHT22;1026;51.460;7.252;2022-11-18T14:12:06;10.60;94.60
2042;DHT22;1026;51.460;7.252;2022-11-18T14:14:44;10.60;94.50
2042;DHT22;1026;51.460;7.252;2022-11-18T14:17:26;10.60;94.50
2042;DHT22;1026;51.460;7.252;2022-11-18T14:19:56;10.60;94.50
2042;DHT22;1026;51.460;7.252;2022-11-18T14:22:23;10.60;94.50
2042;DHT22;1026;51.460;7.252;2022-11-18T14:27:41;10.60;94.50
2042;DHT22;1026;51.460;7.252;2022-11-18T14:30:38;10.60;94.50
2042;DHT22;1026;51.460;7.252;2022-11-18T14:35:31;10.60;94.50
2042;DHT22;1026;51.460;7.252;2022-11-18T14:37:57;10.60;94.60
2042;DHT22;1026;51.460;7.252;2022-11-18T14:40:23;10.60;94.50
2042;DHT22;1026;51.460;7.252;2022-11-18T14:42:48;10.60;94.50
2042;DHT22;1026;51.460;7.252;2022-11-18T14:45:14;10.60;94.50
2042;DHT22;1026;51.460;7.252;2022-11-18T14:47:40;10.60;94.50
2042;DHT22;1026;51.460;7.252;2022-11-18T14:50:14;10.60;94.50
2042;DHT22;1026;51.460;7.252;2022-11-18T14:52:39;10.60;94.50
2042;DHT22;1026;51.460;7.252;2022-11-18T14:55:05;10.60;94.50
2042;DHT22;1026;51.460;7.252;2022-11-18T14:57:31;10.60;94.50
2042;DHT22;1026;51.460;7.252;2022-11-18T14:59:57;10.60;94.50
2042;DHT22;1026;51.460;7.252;2022-11-18T15:02:23;10.60;94.50
2042;DHT22;1026;51.460;7.252;2022-11-18T15:04:49;10.60;94.50
2042;DHT22;1026;51.460;7.252;2022-11-18T15:07:17;10.60;94.50
2042;DHT22;1026;51.460;7.252;2022-11-18T15:09:43;10.60;94.50
2042;DHT22;1026;51.460;7.252;2022-11-18T15:12:09;10.60;94.50
2042;DHT22;1026;51.460;7.252;2022-11-18T15:14:35;10.60;94.50
2042;DHT22;1026;51.460;7.252;2022-11-18T15:17:01;10.50;94.40
2042;DHT22;1026;51.460;7.252;2022-11-18T15:19:27;10.60;94.50
2042;DHT22;1026;51.460;7.252;2022-11-18T15:21:53;10.60;94.50
2042;DHT22;1026;51.460;7.252;2022-11-18T15:24:19;10.60;94.50
2042;DHT22;1026;51.460;7.252;2022-11-18T15:26:45;10.60;94.50
2042;DHT22;1026;51.460;7.252;2022-11-18T15:29:21;10.60;94.50
2042;DHT22;1026;51.460;7.252;2022-11-18T15:31:47;10.60;94.60
2042;DHT22;1026;51.460;7.252;2022-11-18T15:34:13;10.60;94.50
2042;DHT22;1026;51.460;7.252;2022-11-18T15:36:39;10.60;94.60
2042;DHT22;1026;51.460;7.252;2022-11-18T15:39:05;10.50;94.50
2042;DHT22;1026;51.460;7.252;2022-11-18T15:41:31;10.50;94.50
2042;DHT22;1026;51.460;7.252;2022-11-18T15:43:58;10.50;94.50
2042;DHT22;1026;51.460;7.252;2022-11-18T15:46:26;10.50;94.50
2042;DHT22;1026;51.460;7.252;2022-11-18T15:48:55;10.50;94.50
2042;DHT22;1026;51.460;7.252;2022-11-18T15:51:21;10.50;94.50
2042;DHT22;1026;51.460;7.252;2022-11-18T15:53:47;10.50;94.60
2042;DHT22;1026;51.460;7.252;2022-11-18T15:56:14;10.50;94.60
2042;DHT22;1026;51.460;7.252;2022-11-18T15:58:40;10.50;94.60
2042;DHT22;1026;51.460;7.252;2022-11-18T16:01:06;10.30;94.50
2042;DHT22;1026;51.460;7.252;2022-11-18T16:03:33;10.40;94.50
2042;DHT22;1026;51.460;7.252;2022-11-18T16:05:59;10.50;94.60
2042;DHT22;1026;51.460;7.252;2022-11-18T16:08:24;10.50;94.60
2042;DHT22;1026;51.460;7.252;2022-11-18T16:10:57;10.50;94.60
2042;DHT22;1026;51.460;7.252;2022-11-18T16:13:38;10.50;94.60
2042;DHT22;1026;51.460;7.252;2022-11-18T16:16:04;10.40;94.60
2042;DHT22;1026;51.460;7.252;2022-11-18T16:18:30;10.40;94.60
2042;DHT22;1026;51.460;7.252;2022-11-18T16:20:57;10.40;94.60
2042;DHT22;1026;51.460;7.252;2022-11-18T16:23:23;10.40;94.60
2042;DHT22;1026;51.460;7.252;2022-11-18T16:25:49;10.30;94.60
2042;DHT22;1026;51.460;7.252;2022-11-18T16:28:14;10.40;94.60
2042;DHT22;1026;51.460;7.252;2022-11-18T16:30:46;10.40;94.60
2042;DHT22;1026;51.460;7.252;2022-11-18T16:33:27;10.40;94.60
2042;DHT22;1026;51.460;7.252;2022-11-18T16:35:52;10.40;94.60
2042;DHT22;1026;51.460;7.252;2022-11-18T16:38:18;10.40;94.60
2042;DHT22;1026;51.460;7.252;2022-11-18T16:40:44;10.30;94.60
2042;DHT22;1026;51.460;7.252;2022-11-18T16:43:10;10.40;94.60
2042;DHT22;1026;51.460;7.252;2022-11-18T16:45:35;10.30;94.60
2042;DHT22;1026;51.460;7.252;2022-11-18T16:48:01;10.30;94.60
2042;DHT22;1026;51.460;7.252;2022-11-18T16:50:26;10.20;94.50
2042;DHT22;1026;51.460;7.252;2022-11-18T16:52:52;10.30;94.60
2042;DHT22;1026;51.460;7.252;2022-11-18T16:55:18;10.30;94.60
2042;DHT22;1026;51.460;7.252;2022-11-18T16:57:43;10.30;94.60
2042;DHT22;1026;51.460;7.252;2022-11-18T17:00:09;10.30;94.60
2042;DHT22;1026;51.460;7.252;2022-11-18T17:02:35;10.30;94.70
2042;DHT22;1026;51.460;7.252;2022-11-18T17:05:01;10.30;94.60
2042;DHT22;1026;51.460;7.252;2022-11-18T17:07:26;10.30;94.60
2042;DHT22;1026;51.460;7.252;2022-11-18T17:09:52;10.30;94.60
2042;DHT22;1026;51.460;7.252;2022-11-18T17:12:18;10.20;94.60
2042;DHT22;1026;51.460;7.252;2022-11-18T17:14:44;10.20;94.60
2042;DHT22;1026;51.460;7.252;2022-11-18T17:17:10;10.20;94.60
2042;DHT22;1026;51.460;7.252;2022-11-18T17:19:35;10.20;94.60
2042;DHT22;1026;51.460;7.252;2022-11-18T17:22:01;10.20;94.60
2042;DHT22;1026;51.460;7.252;2022-11-18T17:24:27;10.20;94.70
2042;DHT22;1026;51.460;7.252;2022-11-18T17:26:52;10.20;94.70
2042;DHT22;1026;51.460;7.252;2022-11-18T17:29:19;10.00;94.60
2042;DHT22;1026;51.460;7.252;2022-11-18T17:31:44;10.00;94.60
2042;DHT22;1026;51.460;7.252;2022-11-18T17:34:12;10.20;94.70
2042;DHT22;1026;51.460;7.252;2022-11-18T17:36:38;10.20;94.70
2042;DHT22;1026;51.460;7.252;2022-11-18T17:39:04;10.20;94.70
2042;DHT22;1026;51.460;7.252;2022-11-18T17:41:30;10.20;94.70
2042;DHT22;1026;51.460;7.252;2022-11-18T17:44:13;10.20;94.70
2042;DHT22;1026;51.460;7.252;2022-11-18T17:46:39;10.20;94.70
2042;DHT22;1026;51.460;7.252;2022-11-18T17:49:11;10.10;94.60
2042;DHT22;1026;51.460;7.252;2022-11-18T17:51:38;10.20;94.70
2042;DHT22;1026;51.460;7.252;2022-11-18T17:54:03;10.10;94.60
2042;DHT22;1026;51.460;7.252;2022-11-18T17:56:29;10.10;94.60
2042;DHT22;1026;51.460;7.252;2022-11-18T17:58:55;10.10;94.60
2042;DHT22;1026;51.460;7.252;2022-11-18T18:01:21;10.10;94.60